sensor_id;sensor_type;location;lat;lon;timestamp;pressure;altitude;pressure_sealevel;temperature;humidity
56671;BME280;42545;50.054;8.306;2022-10-31T00:02:12;100443.78;;;9.54;nan
56671;BME280;42545;50.054;8.306;2022-10-31T00:04:42;100448.16;;;9.54;nan
56671;BME280;42545;50.054;8.306;2022-10-31T00:07:10;100447.13;;;9.49;nan
56671;BME280;42545;50.054;8.306;2022-10-31T00:09:37;100447.88;;;9.43;nan
56671;BME280;42545;50.054;8.306;2022-10-31T00:12:05;100446.84;;;9.38;nan
56671;BME280;42545;50.054;8.306;2022-10-31T00:14:32;100459.03;;;9.34;nan
56671;BME280;42545;50.054;8.306;2022-10-31T00:16:58;100450.19;;;9.32;nan
56671;BME280;42545;50.054;8.306;2022-10-31T00:19:25;100455.66;;;9.38;nan
56671;BME280;42545;50.054;8.306;2022-10-31T00:21:55;100457.63;;;9.47;nan
56671;BME280;42545;50.054;8.306;2022-10-31T00:24:22;100453.53;;;9.57;nan
56671;BME280;42545;50.054;8.306;2022-10-31T00:26:49;100447.56;;;9.64;nan
56671;BME280;42545;50.054;8.306;2022-10-31T00:29:16;100456.63;;;9.75;nan
56671;BME280;42545;50.054;8.306;2022-10-31T00:31:42;100455.00;;;9.80;nan
56671;BME280;42545;50.054;8.306;2022-10-31T00:34:09;100465.66;;;9.85;nan
56671;BME280;42545;50.054;8.306;2022-10-31T00:36:36;100456.97;;;9.88;nan
56671;BME280;42545;50.054;8.306;2022-10-31T00:39:05;100458.66;;;9.86;nan
56671;BME280;42545;50.054;8.306;2022-10-31T00:41:32;100465.63;;;9.84;nan
56671;BME280;42545;50.054;8.306;2022-10-31T00:43:59;100461.22;;;9.82;nan
56671;BME280;42545;50.054;8.306;2022-10-31T00:46:26;100469.03;;;9.79;nan
56671;BME280;42545;50.054;8.306;2022-10-31T00:48:53;100465.38;;;9.74;nan
56671;BME280;42545;50.054;8.306;2022-10-31T00:51:21;100466.06;;;9.67;nan
56671;BME280;42545;50.054;8.306;2022-10-31T00:53:47;100464.13;;;9.60;nan
56671;BME280;42545;50.054;8.306;2022-10-31T00:56:16;100460.41;;;9.52;nan
56671;BME280;42545;50.054;8.306;2022-10-31T00:58:43;100469.03;;;9.46;nan
56671;BME280;42545;50.054;8.306;2022-10-31T01:01:10;100460.09;;;9.41;nan
56671;BME280;42545;50.054;8.306;2022-10-31T01:03:37;100459.13;;;9.37;nan
56671;BME280;42545;50.054;8.306;2022-10-31T01:06:07;100454.63;;;9.33;nan
56671;BME280;42545;50.054;8.306;2022-10-31T01:08:35;100458.16;;;9.34;nan
56671;BME280;42545;50.054;8.306;2022-10-31T01:11:06;100457.25;;;9.33;nan
56671;BME280;42545;50.054;8.306;2022-10-31T01:13:35;100457.25;;;9.33;nan
56671;BME280;42545;50.054;8.306;2022-10-31T01:16:03;100455.50;;;9.34;nan
56671;BME280;42545;50.054;8.306;2022-10-31T01:18:32;100459.84;;;9.32;nan
56671;BME280;42545;50.054;8.306;2022-10-31T01:21:02;100451.91;;;9.30;nan
56671;BME280;42545;50.054;8.306;2022-10-31T01:23:30;100443.06;;;9.28;nan
56671;BME280;42545;50.054;8.306;2022-10-31T01:26:02;100439.66;;;9.32;nan
56671;BME280;42545;50.054;8.306;2022-10-31T01:28:29;100444.81;;;9.28;nan
56671;BME280;42545;50.054;8.306;2022-10-31T01:31:02;100440.28;;;9.23;nan
56671;BME280;42545;50.054;8.306;2022-10-31T01:33:29;100441.06;;;9.19;nan
56671;BME280;42545;50.054;8.306;2022-10-31T01:35:56;100445.53;;;9.22;nan
56671;BME280;42545;50.054;8.306;2022-10-31T01:38:23;100444.63;;;9.21;nan
56671;BME280;42545;50.054;8.306;2022-10-31T01:40:50;100440.13;;;9.17;nan
56671;BME280;42545;50.054;8.306;2022-10-31T01:43:17;100437.44;;;9.16;nan
56671;BME280;42545;50.054;8.306;2022-10-31T01:45:50;100431.16;;;9.11;nan
56671;BME280;42545;50.054;8.306;2022-10-31T01:48:24;100438.13;;;9.09;nan
56671;BME280;42545;50.054;8.306;2022-10-31T01:50:56;100442.28;;;9.00;nan
56671;BME280;42545;50.054;8.306;2022-10-31T01:53:23;100442.19;;;8.97;nan
56671;BME280;42545;50.054;8.306;2022-10-31T01:55:51;100438.59;;;8.94;nan
56671;BME280;42545;50.054;8.306;2022-10-31T01:58:20;100444.72;;;8.94;nan
56671;BME280;42545;50.054;8.306;2022-10-31T02:00:51;100442.88;;;8.90;nan
56671;BME280;42545;50.054;8.306;2022-10-31T02:03:21;100453.34;;;8.89;nan
56671;BME280;42545;50.054;8.306;2022-10-31T02:05:49;100452.59;;;8.93;nan
56671;BME280;42545;50.054;8.306;2022-10-31T02:08:20;100457.94;;;8.96;nan
56671;BME280;42545;50.054;8.306;2022-10-31T02:10:49;100463.09;;;8.91;nan
56671;BME280;42545;50.054;8.306;2022-10-31T02:13:17;100469.19;;;8.90;nan
56671;BME280;42545;50.054;8.306;2022-10-31T02:15:47;100459.63;;;8.94;nan
56671;BME280;42545;50.054;8.306;2022-10-31T02:18:17;100453.59;;;8.98;nan
56671;BME280;42545;50.054;8.306;2022-10-31T02:20:55;100450.28;;;9.03;nan
56671;BME280;42545;50.054;8.306;2022-10-31T02:23:49;100446.94;;;9.09;nan
56671;BME280;42545;50.054;8.306;2022-10-31T02:26:35;100443.50;;;9.12;nan
56671;BME280;42545;50.054;8.306;2022-10-31T02:29:43;100440.91;;;9.13;nan
56671;BME280;42545;50.054;8.306;2022-10-31T02:32:26;100436.53;;;9.14;nan
56671;BME280;42545;50.054;8.306;2022-10-31T02:34:58;100440.94;;;9.15;nan
56671;BME280;42545;50.054;8.306;2022-10-31T02:37:35;100440.13;;;9.17;nan
56671;BME280;42545;50.054;8.306;2022-10-31T02:40:10;100444.56;;;9.18;nan
56671;BME280;42545;50.054;8.306;2022-10-31T02:42:43;100448.91;;;9.18;nan
56671;BME280;42545;50.054;8.306;2022-10-31T02:45:17;100442.78;;;9.17;nan
56671;BME280;42545;50.054;8.306;2022-10-31T02:47:49;100444.63;;;9.20;nan
56671;BME280;42545;50.054;8.306;2022-10-31T02:50:19;100437.59;;;9.20;nan
56671;BME280;42545;50.054;8.306;2022-10-31T02:52:50;100437.66;;;9.22;nan
56671;BME280;42545;50.054;8.306;2022-10-31T02:55:44;100424.50;;;9.23;nan
56671;BME280;42545;50.054;8.306;2022-10-31T02:58:15;100433.31;;;9.24;nan
56671;BME280;42545;50.054;8.306;2022-10-31T03:00:54;100434.09;;;9.21;nan
56671;BME280;42545;50.054;8.306;2022-10-31T03:03:34;100430.50;;;9.18;nan
56671;BME280;42545;50.054;8.306;2022-10-31T03:06:07;100435.81;;;9.19;nan
56671;BME280;42545;50.054;8.306;2022-10-31T03:08:41;100434.03;;;9.18;nan
56671;BME280;42545;50.054;8.306;2022-10-31T03:11:11;100432.25;;;9.17;nan
56671;BME280;42545;50.054;8.306;2022-10-31T03:13:41;100432.19;;;9.16;nan
56671;BME280;42545;50.054;8.306;2022-10-31T03:16:14;100434.00;;;9.17;nan
56671;BME280;42545;50.054;8.306;2022-10-31T03:18:49;100426.88;;;9.14;nan
56671;BME280;42545;50.054;8.306;2022-10-31T03:21:20;100433.00;;;9.13;nan
56671;BME280;42545;50.054;8.306;2022-10-31T03:23:50;100429.41;;;9.10;nan
56671;BME280;42545;50.054;8.306;2022-10-31T03:26:19;100432.03;;;9.10;nan
56671;BME280;42545;50.054;8.306;2022-10-31T03:28:49;100429.34;;;9.08;nan
56671;BME280;42545;50.054;8.306;2022-10-31T03:31:19;100424.84;;;9.04;nan
56671;BME280;42545;50.054;8.306;2022-10-31T03:33:52;100415.16;;;9.03;nan
56671;BME280;42545;50.054;8.306;2022-10-31T03:36:21;100422.22;;;9.04;nan
56671;BME280;42545;50.054;8.306;2022-10-31T03:38:49;100416.91;;;9.02;nan
56671;BME280;42545;50.054;8.306;2022-10-31T03:41:21;100420.41;;;9.03;nan
56671;BME280;42545;50.054;8.306;2022-10-31T03:43:54;100414.28;;;9.02;nan
56671;BME280;42545;50.054;8.306;2022-10-31T03:46:22;100410.72;;;9.00;nan
56671;BME280;42545;50.054;8.306;2022-10-31T03:48:51;100405.34;;;8.97;nan
56671;BME280;42545;50.054;8.306;2022-10-31T03:51:22;100408.03;;;8.99;nan
56671;BME280;42545;50.054;8.306;2022-10-31T03:53:54;100405.31;;;8.96;nan
56671;BME280;42545;50.054;8.306;2022-10-31T03:56:27;100404.28;;;8.91;nan
56671;BME280;42545;50.054;8.306;2022-10-31T03:59:02;100410.31;;;8.87;nan
56671;BME280;42545;50.054;8.306;2022-10-31T04:01:32;100401.38;;;8.81;nan
56671;BME280;42545;50.054;8.306;2022-10-31T04:04:04;100406.47;;;8.75;nan
56671;BME280;42545;50.054;8.306;2022-10-31T04:06:34;100408.94;;;8.69;nan
56671;BME280;42545;50.054;8.306;2022-10-31T04:09:05;100424.56;;;8.64;nan
56671;BME280;42545;50.054;8.306;2022-10-31T04:11:35;100422.66;;;8.59;nan
56671;BME280;42545;50.054;8.306;2022-10-31T04:14:06;100424.28;;;8.55;nan
56671;BME280;42545;50.054;8.306;2022-10-31T04:16:34;100429.44;;;8.51;nan
56671;BME280;42545;50.054;8.306;2022-10-31T04:19:04;100424.00;;;8.46;nan
56671;BME280;42545;50.054;8.306;2022-10-31T04:21:31;100433.47;;;8.41;nan
56671;BME280;42545;50.054;8.306;2022-10-31T04:23:59;100429.88;;;8.39;nan
56671;BME280;42545;50.054;8.306;2022-10-31T04:26:26;100432.53;;;8.39;nan
56671;BME280;42545;50.054;8.306;2022-10-31T04:28:53;100435.16;;;8.39;nan
56671;BME280;42545;50.054;8.306;2022-10-31T04:31:20;100442.22;;;8.41;nan
56671;BME280;42545;50.054;8.306;2022-10-31T04:33:47;100442.38;;;8.44;nan
56671;BME280;42545;50.054;8.306;2022-10-31T04:36:16;100442.53;;;8.49;nan
56671;BME280;42545;50.054;8.306;2022-10-31T04:38:43;100438.09;;;8.48;nan
56671;BME280;42545;50.054;8.306;2022-10-31T04:41:10;100449.50;;;8.49;nan
56671;BME280;42545;50.054;8.306;2022-10-31T04:43:37;100442.59;;;8.51;nan
56671;BME280;42545;50.054;8.306;2022-10-31T04:46:04;100440.97;;;8.56;nan
56671;BME280;42545;50.054;8.306;2022-10-31T04:48:31;100438.38;;;8.57;nan
56671;BME280;42545;50.054;8.306;2022-10-31T04:50:59;100430.59;;;8.60;nan
56671;BME280;42545;50.054;8.306;2022-10-31T04:53:28;100432.47;;;8.64;nan
56671;BME280;42545;50.054;8.306;2022-10-31T04:55:57;100431.63;;;8.65;nan
56671;BME280;42545;50.054;8.306;2022-10-31T04:58:24;100437.88;;;8.69;nan
56671;BME280;42545;50.054;8.306;2022-10-31T05:00:51;100430.91;;;8.71;nan
56671;BME280;42545;50.054;8.306;2022-10-31T05:03:18;100420.47;;;8.74;nan
56671;BME280;42545;50.054;8.306;2022-10-31T05:05:45;100423.34;;;8.82;nan
56671;BME280;42545;50.054;8.306;2022-10-31T05:08:13;100419.00;;;8.84;nan
56671;BME280;42545;50.054;8.306;2022-10-31T05:10:41;100419.94;;;8.86;nan
56671;BME280;42545;50.054;8.306;2022-10-31T05:13:08;100419.00;;;8.84;nan
56671;BME280;42545;50.054;8.306;2022-10-31T05:15:36;100409.22;;;8.78;nan
56671;BME280;42545;50.054;8.306;2022-10-31T05:18:03;100411.84;;;8.78;nan
56671;BME280;42545;50.054;8.306;2022-10-31T05:20:31;100415.34;;;8.79;nan
56671;BME280;42545;50.054;8.306;2022-10-31T05:22:59;100414.41;;;8.77;nan
56671;BME280;42545;50.054;8.306;2022-10-31T05:25:27;100415.19;;;8.73;nan
56671;BME280;42545;50.054;8.306;2022-10-31T05:27:56;100421.31;;;8.73;nan
56671;BME280;42545;50.054;8.306;2022-10-31T05:30:25;100415.13;;;8.71;nan
56671;BME280;42545;50.054;8.306;2022-10-31T05:32:52;100417.75;;;8.71;nan
56671;BME280;42545;50.054;8.306;2022-10-31T05:35:21;100417.75;;;8.71;nan
56671;BME280;42545;50.054;8.306;2022-10-31T05:37:49;100415.19;;;8.73;nan
56671;BME280;42545;50.054;8.306;2022-10-31T05:40:18;100416.06;;;8.73;nan
56671;BME280;42545;50.054;8.306;2022-10-31T05:42:45;100410.84;;;8.75;nan
56671;BME280;42545;50.054;8.306;2022-10-31T05:45:15;100411.78;;;8.77;nan
56671;BME280;42545;50.054;8.306;2022-10-31T05:47:49;100411.88;;;8.80;nan
56671;BME280;42545;50.054;8.306;2022-10-31T05:50:16;100418.88;;;8.79;nan
56671;BME280;42545;50.054;8.306;2022-10-31T05:52:43;100417.16;;;8.81;nan
56671;BME280;42545;50.054;8.306;2022-10-31T05:55:10;100411.91;;;8.81;nan
56671;BME280;42545;50.054;8.306;2022-10-31T05:57:37;100417.25;;;8.84;nan
56671;BME280;42545;50.054;8.306;2022-10-31T06:00:05;100426.97;;;8.85;nan
56671;BME280;42545;50.054;8.306;2022-10-31T06:02:34;100426.03;;;8.83;nan
56671;BME280;42545;50.054;8.306;2022-10-31T06:05:01;100419.78;;;8.81;nan
56671;BME280;42545;50.054;8.306;2022-10-31T06:07:32;100420.66;;;8.80;nan
56671;BME280;42545;50.054;8.306;2022-10-31T06:09:59;100418.13;;;8.83;nan
56671;BME280;42545;50.054;8.306;2022-10-31T06:12:27;100404.06;;;8.83;nan
56671;BME280;42545;50.054;8.306;2022-10-31T06:14:54;100404.00;;;8.81;nan
56671;BME280;42545;50.054;8.306;2022-10-31T06:17:22;100388.81;;;8.71;nan
56671;BME280;42545;50.054;8.306;2022-10-31T06:19:51;100404.00;;;8.81;nan
56671;BME280;42545;50.054;8.306;2022-10-31T06:22:18;100404.94;;;8.82;nan
56671;BME280;42545;50.054;8.306;2022-10-31T06:24:45;100407.63;;;8.85;nan
56671;BME280;42545;50.054;8.306;2022-10-31T06:27:12;100404.25;;;8.89;nan
56671;BME280;42545;50.054;8.306;2022-10-31T06:29:38;100418.41;;;8.93;nan
56671;BME280;42545;50.054;8.306;2022-10-31T06:32:05;100409.72;;;8.97;nan
56671;BME280;42545;50.054;8.306;2022-10-31T06:34:32;100409.84;;;9.00;nan
56671;BME280;42545;50.054;8.306;2022-10-31T06:37:01;100418.72;;;9.05;nan
56671;BME280;42545;50.054;8.306;2022-10-31T06:39:28;100410.09;;;9.09;nan
56671;BME280;42545;50.054;8.306;2022-10-31T06:41:54;100405.81;;;9.14;nan
56671;BME280;42545;50.054;8.306;2022-10-31T06:44:21;100409.44;;;9.18;nan
56671;BME280;42545;50.054;8.306;2022-10-31T06:46:48;100406.13;;;9.25;nan
56671;BME280;42545;50.054;8.306;2022-10-31T06:49:16;100401.00;;;9.30;nan
56671;BME280;42545;50.054;8.306;2022-10-31T06:51:47;100402.94;;;9.37;nan
56671;BME280;42545;50.054;8.306;2022-10-31T06:54:16;100396.69;;;9.33;nan
56671;BME280;42545;50.054;8.306;2022-10-31T06:56:46;100402.41;;;9.50;nan
56671;BME280;42545;50.054;8.306;2022-10-31T06:59:14;100412.16;;;9.54;nan
56671;BME280;42545;50.054;8.306;2022-10-31T07:01:42;100414.97;;;9.60;nan
56671;BME280;42545;50.054;8.306;2022-10-31T07:04:09;100407.16;;;9.65;nan
56671;BME280;42545;50.054;8.306;2022-10-31T07:06:36;100411.69;;;9.69;nan
56671;BME280;42545;50.054;8.306;2022-10-31T07:09:03;100409.16;;;9.74;nan
56671;BME280;42545;50.054;8.306;2022-10-31T07:11:32;100406.59;;;9.77;nan
56671;BME280;42545;50.054;8.306;2022-10-31T07:13:58;100415.44;;;9.79;nan
56671;BME280;42545;50.054;8.306;2022-10-31T07:16:25;100409.47;;;9.86;nan
56671;BME280;42545;50.054;8.306;2022-10-31T07:18:53;100410.50;;;9.93;nan
56671;BME280;42545;50.054;8.306;2022-10-31T07:21:19;100416.81;;;9.99;nan
56671;BME280;42545;50.054;8.306;2022-10-31T07:23:47;100409.84;;;10.01;nan
56671;BME280;42545;50.054;8.306;2022-10-31T07:26:14;100419.69;;;10.09;nan
56671;BME280;42545;50.054;8.306;2022-10-31T07:28:45;100414.56;;;10.16;nan
56671;BME280;42545;50.054;8.306;2022-10-31T07:31:12;100423.53;;;10.23;nan
56671;BME280;42545;50.054;8.306;2022-10-31T07:33:38;100421.94;;;10.30;nan
56671;BME280;42545;50.054;8.306;2022-10-31T07:36:06;100419.47;;;10.36;nan
56671;BME280;42545;50.054;8.306;2022-10-31T07:38:33;100418.84;;;10.46;nan
56671;BME280;42545;50.054;8.306;2022-10-31T07:41:00;100420.78;;;10.55;nan
56671;BME280;42545;50.054;8.306;2022-10-31T07:43:27;100415.69;;;10.63;nan
56671;BME280;42545;50.054;8.306;2022-10-31T07:45:56;100407.88;;;10.69;nan
56671;BME280;42545;50.054;8.306;2022-10-31T07:48:23;100416.91;;;10.80;nan
56671;BME280;42545;50.054;8.306;2022-10-31T07:50:50;100422.34;;;10.88;nan
56671;BME280;42545;50.054;8.306;2022-10-31T07:53:18;100419.88;;;10.94;nan
56671;BME280;42545;50.054;8.306;2022-10-31T07:55:45;100420.94;;;11.04;nan
56671;BME280;42545;50.054;8.306;2022-10-31T07:58:13;100422.88;;;11.12;nan
56671;BME280;42545;50.054;8.306;2022-10-31T08:00:42;100422.09;;;11.18;nan
56671;BME280;42545;50.054;8.306;2022-10-31T08:03:14;100425.75;;;11.25;nan
56671;BME280;42545;50.054;8.306;2022-10-31T08:05:41;100425.88;;;11.31;nan
56671;BME280;42545;50.054;8.306;2022-10-31T08:08:11;100422.53;;;11.40;nan
56671;BME280;42545;50.054;8.306;2022-10-31T08:10:38;100424.38;;;11.45;nan
56671;BME280;42545;50.054;8.306;2022-10-31T08:13:07;100422.72;;;11.50;nan
56671;BME280;42545;50.054;8.306;2022-10-31T08:15:35;100421.94;;;11.56;nan
56671;BME280;42545;50.054;8.306;2022-10-31T08:18:04;100420.31;;;11.64;nan
56671;BME280;42545;50.054;8.306;2022-10-31T08:20:34;100423.13;;;11.72;nan
56671;BME280;42545;50.054;8.306;2022-10-31T08:23:03;100416.13;;;11.76;nan
56671;BME280;42545;50.054;8.306;2022-10-31T08:25:32;100424.22;;;11.85;nan
56671;BME280;42545;50.054;8.306;2022-10-31T08:28:00;100417.28;;;11.91;nan
56671;BME280;42545;50.054;8.306;2022-10-31T08:30:27;100421.81;;;11.99;nan
56671;BME280;42545;50.054;8.306;2022-10-31T08:33:00;100414.00;;;12.06;nan
56671;BME280;42545;50.054;8.306;2022-10-31T08:35:27;100415.88;;;12.12;nan
56671;BME280;42545;50.054;8.306;2022-10-31T08:37:56;100412.44;;;12.19;nan
56671;BME280;42545;50.054;8.306;2022-10-31T08:40:25;100406.34;;;12.23;nan
56671;BME280;42545;50.054;8.306;2022-10-31T08:42:57;100405.53;;;12.27;nan
56671;BME280;42545;50.054;8.306;2022-10-31T08:45:24;100407.34;;;12.31;nan
56671;BME280;42545;50.054;8.306;2022-10-31T08:47:51;100403.91;;;12.37;nan
56671;BME280;42545;50.054;8.306;2022-10-31T08:50:19;100402.16;;;12.39;nan
56671;BME280;42545;50.054;8.306;2022-10-31T08:52:46;100401.38;;;12.46;nan
56671;BME280;42545;50.054;8.306;2022-10-31T08:55:15;100394.44;;;12.53;nan
56671;BME280;42545;50.054;8.306;2022-10-31T08:57:42;100390.16;;;12.61;nan
56671;BME280;42545;50.054;8.306;2022-10-31T09:00:09;100387.56;;;12.67;nan
56671;BME280;42545;50.054;8.306;2022-10-31T09:02:36;100395.59;;;12.75;nan
56671;BME280;42545;50.054;8.306;2022-10-31T09:05:04;100385.97;;;12.82;nan
56671;BME280;42545;50.054;8.306;2022-10-31T09:07:31;100389.59;;;12.87;nan
56671;BME280;42545;50.054;8.306;2022-10-31T09:10:02;100390.50;;;12.91;nan
56671;BME280;42545;50.054;8.306;2022-10-31T09:12:31;100387.94;;;12.97;nan
56671;BME280;42545;50.054;8.306;2022-10-31T09:14:59;100387.06;;;12.98;nan
56671;BME280;42545;50.054;8.306;2022-10-31T09:17:27;100382.72;;;13.04;nan
56671;BME280;42545;50.054;8.306;2022-10-31T09:19:54;100379.22;;;13.08;nan
56671;BME280;42545;50.054;8.306;2022-10-31T09:22:23;100387.22;;;13.12;nan
56671;BME280;42545;50.054;8.306;2022-10-31T09:24:50;100379.25;;;13.12;nan
56671;BME280;42545;50.054;8.306;2022-10-31T09:27:17;100380.16;;;13.14;nan
56671;BME280;42545;50.054;8.306;2022-10-31T09:29:46;100388.16;;;13.17;nan
56671;BME280;42545;50.054;8.306;2022-10-31T09:32:13;100381.97;;;13.18;nan
56671;BME280;42545;50.054;8.306;2022-10-31T09:34:41;100383.78;;;13.20;nan
56671;BME280;42545;50.054;8.306;2022-10-31T09:37:08;100378.53;;;13.23;nan
56671;BME280;42545;50.054;8.306;2022-10-31T09:39:36;100382.94;;;13.24;nan
56671;BME280;42545;50.054;8.306;2022-10-31T09:42:15;100378.56;;;13.28;nan
56671;BME280;42545;50.054;8.306;2022-10-31T09:44:51;100381.22;;;13.28;nan
56671;BME280;42545;50.054;8.306;2022-10-31T09:47:39;100375.09;;;13.32;nan
56671;BME280;42545;50.054;8.306;2022-10-31T09:50:14;100374.25;;;13.38;nan
56671;BME280;42545;50.054;8.306;2022-10-31T09:52:54;100379.66;;;13.45;nan
56671;BME280;42545;50.054;8.306;2022-10-31T09:55:31;100381.50;;;13.53;nan
56671;BME280;42545;50.054;8.306;2022-10-31T09:58:02;100368.28;;;13.59;nan
56671;BME280;42545;50.054;8.306;2022-10-31T10:00:31;100365.69;;;13.65;nan
56671;BME280;42545;50.054;8.306;2022-10-31T10:03:06;100361.31;;;13.70;nan
56671;BME280;42545;50.054;8.306;2022-10-31T10:05:40;100359.56;;;13.74;nan
56671;BME280;42545;50.054;8.306;2022-10-31T10:08:13;100355.22;;;13.80;nan
56671;BME280;42545;50.054;8.306;2022-10-31T10:10:48;100351.72;;;13.84;nan
56671;BME280;42545;50.054;8.306;2022-10-31T10:13:33;100347.34;;;13.91;nan
56671;BME280;42545;50.054;8.306;2022-10-31T10:16:15;100357.09;;;13.95;nan
56671;BME280;42545;50.054;8.306;2022-10-31T10:18:57;100348.28;;;14.01;nan
56671;BME280;42545;50.054;8.306;2022-10-31T10:21:36;100347.41;;;14.03;nan
56671;BME280;42545;50.054;8.306;2022-10-31T10:24:28;100350.97;;;14.04;nan
56671;BME280;42545;50.054;8.306;2022-10-31T10:27:05;100343.00;;;14.07;nan
56671;BME280;42545;50.054;8.306;2022-10-31T10:29:37;100343.94;;;14.11;nan
56671;BME280;42545;50.054;8.306;2022-10-31T10:32:12;100343.97;;;14.14;nan
56671;BME280;42545;50.054;8.306;2022-10-31T10:34:45;100349.28;;;14.20;nan
56671;BME280;42545;50.054;8.306;2022-10-31T10:37:22;100341.38;;;14.26;nan
56671;BME280;42545;50.054;8.306;2022-10-31T10:39:53;100345.81;;;14.30;nan
56671;BME280;42545;50.054;8.306;2022-10-31T10:42:23;100351.19;;;14.39;nan
56671;BME280;42545;50.054;8.306;2022-10-31T10:45:14;100340.63;;;14.49;nan
56671;BME280;42545;50.054;8.306;2022-10-31T10:48:06;100326.53;;;14.57;nan
56671;BME280;42545;50.054;8.306;2022-10-31T10:50:41;100314.16;;;14.61;nan
56671;BME280;42545;50.054;8.306;2022-10-31T10:53:18;100318.63;;;14.70;nan
56671;BME280;42545;50.054;8.306;2022-10-31T10:56:00;100317.78;;;14.78;nan
56671;BME280;42545;50.054;8.306;2022-10-31T10:58:29;100315.13;;;14.83;nan
56671;BME280;42545;50.054;8.306;2022-10-31T11:00:56;100309.81;;;14.86;nan
56671;BME280;42545;50.054;8.306;2022-10-31T11:03:25;100310.72;;;14.96;nan
56671;BME280;42545;50.054;8.306;2022-10-31T11:05:53;100298.34;;;15.06;nan
56671;BME280;42545;50.054;8.306;2022-10-31T11:08:23;100287.72;;;15.16;nan
56671;BME280;42545;50.054;8.306;2022-10-31T11:11:00;100286.84;;;15.27;nan
56671;BME280;42545;50.054;8.306;2022-10-31T11:13:33;100282.44;;;15.32;nan
56671;BME280;42545;50.054;8.306;2022-10-31T11:16:04;100270.91;;;15.42;nan
56671;BME280;42545;50.054;8.306;2022-10-31T11:18:37;100278.00;;;15.52;nan
56671;BME280;42545;50.054;8.306;2022-10-31T11:21:05;100269.16;;;15.63;nan
56671;BME280;42545;50.054;8.306;2022-10-31T11:23:33;100270.00;;;15.68;nan
56671;BME280;42545;50.054;8.306;2022-10-31T11:26:01;100270.06;;;15.77;nan
56671;BME280;42545;50.054;8.306;2022-10-31T11:28:30;100271.78;;;15.86;nan
56671;BME280;42545;50.054;8.306;2022-10-31T11:31:05;100261.16;;;15.92;nan
56671;BME280;42545;50.054;8.306;2022-10-31T11:33:37;100260.22;;;16.01;nan
56671;BME280;42545;50.054;8.306;2022-10-31T11:36:15;100254.00;;;16.09;nan
56671;BME280;42545;50.054;8.306;2022-10-31T11:38:43;100246.84;;;16.21;nan
56671;BME280;42545;50.054;8.306;2022-10-31T11:41:14;100239.72;;;16.26;nan
56671;BME280;42545;50.054;8.306;2022-10-31T11:43:48;100240.59;;;16.34;nan
56671;BME280;42545;50.054;8.306;2022-10-31T11:46:21;100232.56;;;16.40;nan
56671;BME280;42545;50.054;8.306;2022-10-31T11:48:53;100237.00;;;16.44;nan
56671;BME280;42545;50.054;8.306;2022-10-31T11:51:23;100237.84;;;16.48;nan
56671;BME280;42545;50.054;8.306;2022-10-31T11:53:55;100244.97;;;16.50;nan
56671;BME280;42545;50.054;8.306;2022-10-31T11:56:36;100242.31;;;16.52;nan
56671;BME280;42545;50.054;8.306;2022-10-31T11:59:05;100245.84;;;16.54;nan
56671;BME280;42545;50.054;8.306;2022-10-31T12:01:33;100246.72;;;16.58;nan
56671;BME280;42545;50.054;8.306;2022-10-31T12:04:07;100257.31;;;16.61;nan
56671;BME280;42545;50.054;8.306;2022-10-31T12:06:35;100240.47;;;16.63;nan
56671;BME280;42545;50.054;8.306;2022-10-31T12:09:16;100244.88;;;16.67;nan
56671;BME280;42545;50.054;8.306;2022-10-31T12:11:53;100238.63;;;16.73;nan
56671;BME280;42545;50.054;8.306;2022-10-31T12:14:30;100223.50;;;16.81;nan
56671;BME280;42545;50.054;8.306;2022-10-31T12:17:04;100215.47;;;16.86;nan
56671;BME280;42545;50.054;8.306;2022-10-31T12:19:42;100206.59;;;16.87;nan
56671;BME280;42545;50.054;8.306;2022-10-31T12:22:16;100193.28;;;16.84;nan
56671;BME280;42545;50.054;8.306;2022-10-31T12:25:03;100187.06;;;16.85;nan
56671;BME280;42545;50.054;8.306;2022-10-31T12:27:45;100180.84;;;16.84;nan
56671;BME280;42545;50.054;8.306;2022-10-31T12:30:20;100189.75;;;16.83;nan
56671;BME280;42545;50.054;8.306;2022-10-31T12:33:00;100198.63;;;16.85;nan
56671;BME280;42545;50.054;8.306;2022-10-31T12:35:40;100179.03;;;16.86;nan
56671;BME280;42545;50.054;8.306;2022-10-31T12:38:24;100179.97;;;16.85;nan
56671;BME280;42545;50.054;8.306;2022-10-31T12:41:11;100178.19;;;16.84;nan
56671;BME280;42545;50.054;8.306;2022-10-31T12:43:46;100171.03;;;16.88;nan
56671;BME280;42545;50.054;8.306;2022-10-31T12:46:25;100171.88;;;16.96;nan
56671;BME280;42545;50.054;8.306;2022-10-31T12:49:16;100157.56;;;17.06;nan
56671;BME280;42545;50.054;8.306;2022-10-31T12:51:56;100148.53;;;17.23;nan
56671;BME280;42545;50.054;8.306;2022-10-31T12:54:43;100146.63;;;17.37;nan
56671;BME280;42545;50.054;8.306;2022-10-31T12:57:22;100142.97;;;17.46;nan
56671;BME280;42545;50.054;8.306;2022-10-31T12:59:54;100133.16;;;17.51;nan
56671;BME280;42545;50.054;8.306;2022-10-31T13:02:27;100134.94;;;17.51;nan
56671;BME280;42545;50.054;8.306;2022-10-31T13:04:58;100129.63;;;17.46;nan
56671;BME280;42545;50.054;8.306;2022-10-31T13:07:30;100126.16;;;17.39;nan
56671;BME280;42545;50.054;8.306;2022-10-31T13:10:04;100127.16;;;17.31;nan
56671;BME280;42545;50.054;8.306;2022-10-31T13:12:36;100120.13;;;17.20;nan
56671;BME280;42545;50.054;8.306;2022-10-31T13:15:11;100120.16;;;17.17;nan
56671;BME280;42545;50.054;8.306;2022-10-31T13:17:43;100114.88;;;17.14;nan
56671;BME280;42545;50.054;8.306;2022-10-31T13:20:17;100110.41;;;17.12;nan
56671;BME280;42545;50.054;8.306;2022-10-31T13:22:51;100105.09;;;17.12;nan
56671;BME280;42545;50.054;8.306;2022-10-31T13:25:23;100096.25;;;17.06;nan
56671;BME280;42545;50.054;8.306;2022-10-31T13:27:54;100096.31;;;17.02;nan
56671;BME280;42545;50.054;8.306;2022-10-31T13:30:25;100091.91;;;16.98;nan
56671;BME280;42545;50.054;8.306;2022-10-31T13:32:59;100090.13;;;16.97;nan
56671;BME280;42545;50.054;8.306;2022-10-31T13:35:32;100085.69;;;16.96;nan
56671;BME280;42545;50.054;8.306;2022-10-31T13:38:13;100085.72;;;16.94;nan